Time;durP1;ratioP1;P1;durP2;ratioP2;P2;SDS_P1;SDS_P2;PMS_P1;PMS_P2;Temp;Humidity;BMP_temperature;BMP_pressure;BME280_temperature;BME280_humidity;BME280_pressure;Samples;Min_cycle;Max_cycle;Signal;HPM_P1;HPM_P2
2023/02/06 00:02:41;;;;;;;3.80;1.33;;;11.00;48.90;;;;;;6124188;28;20040;-64
2023/02/06 00:05:42;;;;;;;4.88;1.00;;;11.00;49.00;;;;;;6124095;28;20040;-64
2023/02/06 00:08:43;;;;;;;1.10;0.80;;;10.90;49.00;;;;;;6123556;28;20035;-64
2023/02/06 00:11:44;;;;;;;2.60;1.30;;;10.90;49.00;;;;;;6122746;29;20473;-63
2023/02/06 00:14:45;;;;;;;1.42;0.90;;;10.90;49.00;;;;;;6123884;29;20070;-65
2023/02/06 00:17:45;;;;;;;1.13;1.00;;;10.90;49.00;;;;;;6122750;29;20024;-64
2023/02/06 00:20:46;;;;;;;1.25;0.80;;;10.90;48.90;;;;;;6123616;29;20448;-64
2023/02/06 00:23:48;;;;;;;2.83;0.77;;;10.90;48.90;;;;;;6114606;29;20076;-64
2023/02/06 00:26:49;;;;;;;1.65;0.90;;;10.90;48.90;;;;;;6098487;29;20090;-64
2023/02/06 00:29:50;;;;;;;1.55;0.95;;;10.90;48.90;;;;;;6098710;28;20028;-64
2023/02/06 00:32:51;;;;;;;1.27;0.90;;;10.90;48.80;;;;;;6099822;29;20055;-63
2023/02/06 00:35:51;;;;;;;3.13;1.10;;;10.90;48.80;;;;;;6082887;28;20402;-64
2023/02/06 00:38:53;;;;;;;1.30;0.80;;;10.90;48.70;;;;;;6098223;28;20089;-64
2023/02/06 00:41:54;;;;;;;1.60;0.85;;;10.90;48.80;;;;;;6114355;29;20040;-64
2023/02/06 00:44:55;;;;;;;1.33;0.93;;;10.90;48.80;;;;;;6099897;29;20209;-64
2023/02/06 00:47:56;;;;;;;2.33;1.40;;;10.80;48.90;;;;;;6099512;29;20542;-63
2023/02/06 00:50:57;;;;;;;3.30;1.10;;;10.80;49.00;;;;;;6099789;29;20051;-64
2023/02/06 00:53:58;;;;;;;1.05;0.70;;;10.70;49.10;;;;;;6119476;28;20054;-64
2023/02/06 00:56:58;;;;;;;3.28;1.23;;;10.70;49.20;;;;;;6123146;29;20040;-63
2023/02/06 00:59:59;;;;;;;2.58;1.30;;;10.60;49.30;;;;;;6121635;28;20059;-63
2023/02/06 01:03:00;;;;;;;2.33;1.10;;;10.60;49.40;;;;;;6121884;28;20059;-64
2023/02/06 01:06:01;;;;;;;4.80;1.13;;;10.60;49.40;;;;;;6122006;28;20039;-64
2023/02/06 01:09:02;;;;;;;1.10;1.00;;;10.60;49.40;;;;;;6121286;29;20396;-63
2023/02/06 01:12:03;;;;;;;0.55;0.52;;;10.50;49.50;;;;;;6121544;29;20055;-64
2023/02/06 01:15:06;;;;;;;1.77;1.00;;;10.50;49.50;;;;;;6121486;29;20484;-63
2023/02/06 01:18:07;;;;;;;1.20;0.93;;;10.50;49.70;;;;;;6122443;29;20431;-63
2023/02/06 01:21:12;;;;;;;1.27;0.95;;;10.40;49.80;;;;;;6105993;29;20040;-63
2023/02/06 01:24:13;;;;;;;2.35;0.98;;;10.40;50.40;;;;;;6121298;29;20020;-63
2023/02/06 01:27:14;;;;;;;1.27;0.80;;;10.40;49.90;;;;;;6122534;28;20503;-63
2023/02/06 01:30:15;;;;;;;0.98;0.70;;;10.40;49.90;;;;;;6122348;29;20019;-63
2023/02/06 01:33:16;;;;;;;1.90;1.10;;;10.40;49.90;;;;;;6121656;28;20470;-64
2023/02/06 01:36:18;;;;;;;2.28;1.00;;;10.40;49.70;;;;;;6122660;28;20495;-63
2023/02/06 01:39:19;;;;;;;2.38;1.30;;;10.40;49.70;;;;;;6121256;28;20131;-65
2023/02/06 01:42:20;;;;;;;1.02;0.82;;;10.50;49.60;;;;;;6123420;28;20043;-63
2023/02/06 01:45:24;;;;;;;1.75;1.20;;;10.40;49.60;;;;;;6122545;29;20420;-64
2023/02/06 01:48:45;;;;;;;1.63;1.17;;;10.40;49.50;;;;;;6122102;28;20042;-62
2023/02/06 01:51:47;;;;;;;1.38;0.90;;;10.40;49.50;;;;;;6123546;28;20056;-65
2023/02/06 01:54:53;;;;;;;1.63;1.10;;;10.40;49.40;;;;;;6123626;29;20110;-64
2023/02/06 01:57:54;;;;;;;1.52;0.85;;;10.50;49.40;;;;;;6122285;29;20031;-63
2023/02/06 02:00:57;;;;;;;1.83;0.90;;;10.50;49.40;;;;;;6120805;29;20166;-63
2023/02/06 02:04:06;;;;;;;3.33;1.08;;;10.60;49.40;;;;;;6122222;29;20445;-65
2023/02/06 02:07:23;;;;;;;0.88;0.88;;;10.50;49.40;;;;;;6121445;29;20102;-64
2023/02/06 02:10:23;;;;;;;1.85;0.93;;;10.50;49.40;;;;;;6121778;29;20063;-63
2023/02/06 02:13:24;;;;;;;1.35;1.20;;;10.60;49.50;;;;;;6121282;29;20145;-65
2023/02/06 02:17:01;;;;;;;1.23;1.13;;;10.60;49.50;;;;;;6121812;29;20024;-64
2023/02/06 02:20:28;;;;;;;1.10;1.00;;;10.60;49.50;;;;;;6123565;28;20035;-63
2023/02/06 02:23:35;;;;;;;2.45;1.00;;;10.60;49.40;;;;;;6147749;28;20046;-63
2023/02/06 02:26:56;;;;;;;1.40;1.08;;;10.60;49.40;;;;;;6146162;29;20042;-64
2023/02/06 02:30:15;;;;;;;3.28;1.05;;;10.60;49.30;;;;;;6145083;29;20042;-63
2023/02/06 02:33:45;;;;;;;1.38;1.02;;;10.70;49.40;;;;;;6145010;29;20035;-64
2023/02/06 02:36:54;;;;;;;0.98;0.80;;;10.70;49.30;;;;;;6145998;29;20092;-64
2023/02/06 02:39:55;;;;;;;2.47;1.10;;;10.70;49.30;;;;;;6145852;29;20035;-64
2023/02/06 02:43:01;;;;;;;1.42;1.10;;;10.70;49.30;;;;;;6147860;28;20488;-65
2023/02/06 02:46:23;;;;;;;2.03;0.82;;;10.60;49.20;;;;;;6131060;28;20028;-63
2023/02/06 02:49:27;;;;;;;1.83;0.88;;;10.70;49.30;;;;;;6121987;28;20039;-63
2023/02/06 02:52:28;;;;;;;1.40;0.90;;;10.70;49.20;;;;;;6123822;28;20036;-64
2023/02/06 02:55:29;;;;;;;1.15;0.75;;;10.70;49.10;;;;;;6124324;29;20024;-64
2023/02/06 02:58:35;;;;;;;1.33;0.93;;;10.70;49.10;;;;;;6123893;29;20387;-64
2023/02/06 03:01:52;;;;;;;1.73;1.17;;;10.70;49.20;;;;;;6124157;29;20062;-63
2023/02/06 03:04:58;;;;;;;1.25;1.15;;;10.60;49.30;;;;;;6124139;28;20048;-64
2023/02/06 03:08:17;;;;;;;1.63;0.90;;;10.50;49.50;;;;;;6123686;29;20392;-63
2023/02/06 03:11:19;;;;;;;2.60;0.82;;;10.40;49.60;;;;;;6124097;29;20051;-63
2023/02/06 03:14:30;;;;;;;1.35;0.80;;;10.30;49.80;;;;;;6123765;29;20468;-63
2023/02/06 03:18:04;;;;;;;2.40;1.15;;;10.30;50.00;;;;;;6123703;29;20031;-63
2023/02/06 03:21:09;;;;;;;2.15;0.90;;;10.20;50.00;;;;;;6124267;28;20024;-64
2023/02/06 03:24:18;;;;;;;2.70;1.05;;;10.20;50.00;;;;;;6116377;29;20043;-63
2023/02/06 03:27:21;;;;;;;1.20;0.73;;;10.20;50.20;;;;;;6101458;29;20115;-63
2023/02/06 03:30:23;;;;;;;3.13;1.45;;;10.10;50.10;;;;;;6100869;29;20032;-63
2023/02/06 03:33:34;;;;;;;1.70;1.30;;;10.10;50.20;;;;;;6182813;28;20051;-63
2023/02/06 03:36:35;;;;;;;5.18;1.73;;;10.10;50.30;;;;;;6100997;29;20035;-64
2023/02/06 03:39:36;;;;;;;3.13;1.20;;;10.20;50.40;;;;;;6099535;29;20365;-64
2023/02/06 03:42:44;;;;;;;2.20;1.00;;;10.10;50.40;;;;;;6117282;28;20070;-64
2023/02/06 03:45:47;;;;;;;;;;;10.20;50.40;;;;;;6124737;28;20127;-63
2023/02/06 03:48:53;;;;;;;3.58;1.45;;;10.10;50.40;;;;;;6206491;28;19930;-64
2023/02/06 03:52:03;;;;;;;1.48;1.23;;;10.10;50.40;;;;;;6122947;28;20070;-64
2023/02/06 03:55:08;;;;;;;5.88;1.60;;;10.10;50.50;;;;;;6124384;29;20055;-64
2023/02/06 03:58:13;;;;;;;1.95;1.23;;;10.10;50.60;;;;;;6123937;29;20074;-63
2023/02/06 04:01:15;;;;;;;2.33;1.00;;;10.00;50.70;;;;;;6122588;28;20083;-63
2023/02/06 04:04:19;;;;;;;2.17;1.30;;;9.90;50.80;;;;;;6123329;29;20085;-63
2023/02/06 04:07:28;;;;;;;2.70;1.60;;;9.90;50.90;;;;;;6123906;29;20036;-64
2023/02/06 04:10:29;;;;;;;5.45;1.45;;;9.90;50.90;;;;;;6123836;29;20051;-64
2023/02/06 04:13:31;;;;;;;2.97;1.50;;;9.90;50.80;;;;;;6122605;29;20043;-62
2023/02/06 04:16:31;;;;;;;12.13;1.77;;;10.00;50.90;;;;;;6123767;29;20032;-64
2023/02/06 04:19:33;;;;;;;3.80;1.10;;;10.00;50.90;;;;;;6123449;29;20106;-65
2023/02/06 04:22:34;;;;;;;3.97;1.75;;;9.90;50.90;;;;;;6123405;29;20127;-64
2023/02/06 04:25:35;;;;;;;2.03;1.08;;;9.90;51.00;;;;;;6123583;29;20046;-66
2023/02/06 04:28:36;;;;;;;2.05;1.23;;;10.00;51.00;;;;;;6122142;28;20042;-62
2023/02/06 04:31:37;;;;;;;2.10;1.27;;;9.90;51.00;;;;;;6123727;28;20444;-63
2023/02/06 04:34:39;;;;;;;12.70;1.17;;;9.90;51.00;;;;;;6123348;29;20046;-63
2023/02/06 04:37:40;;;;;;;3.25;1.42;;;10.00;51.10;;;;;;6123078;28;20020;-64
2023/02/06 04:40:41;;;;;;;3.72;1.65;;;10.00;51.10;;;;;;6123336;29;20542;-63
2023/02/06 04:43:42;;;;;;;2.35;0.98;;;10.00;51.10;;;;;;6122103;28;20032;-63
2023/02/06 04:46:43;;;;;;;2.20;1.13;;;10.00;51.00;;;;;;6106110;28;20443;-63
2023/02/06 04:49:44;;;;;;;2.05;1.35;;;10.00;51.00;;;;;;6122903;29;20039;-65
2023/02/06 04:52:45;;;;;;;3.58;1.27;;;10.10;51.00;;;;;;6123044;28;20043;-63
2023/02/06 04:55:46;;;;;;;2.60;1.48;;;10.20;51.00;;;;;;6122022;29;20069;-63
2023/02/06 04:58:47;;;;;;;4.28;1.23;;;10.20;51.00;;;;;;6121429;29;20031;-63
2023/02/06 05:01:48;;;;;;;1.73;1.20;;;10.20;51.00;;;;;;6121816;29;20480;-63
2023/02/06 05:04:49;;;;;;;1.88;1.40;;;10.20;51.10;;;;;;6122924;28;20094;-64
2023/02/06 05:07:50;;;;;;;4.05;1.40;;;10.20;51.10;;;;;;6122989;29;20471;-63
2023/02/06 05:10:51;;;;;;;2.45;1.40;;;10.20;51.20;;;;;;6107618;29;20161;-63
2023/02/06 05:13:52;;;;;;;3.03;1.20;;;10.10;51.20;;;;;;6122835;29;20032;-63
2023/02/06 05:16:52;;;;;;;6.07;1.75;;;10.10;51.30;;;;;;6121445;29;20472;-63
2023/02/06 05:19:53;;;;;;;2.75;1.80;;;10.20;51.40;;;;;;6122545;29;20086;-63
2023/02/06 05:22:54;;;;;;;4.53;1.67;;;10.20;51.30;;;;;;6122449;29;20518;-63
2023/02/06 05:25:55;;;;;;;2.95;1.40;;;10.30;51.20;;;;;;6122730;29;20040;-64
2023/02/06 05:28:56;;;;;;;2.60;1.70;;;10.30;51.20;;;;;;6122192;29;20035;-64
2023/02/06 05:31:57;;;;;;;1.90;1.13;;;10.30;51.20;;;;;;6122492;29;20139;-63
2023/02/06 05:34:58;;;;;;;2.42;1.40;;;10.30;51.10;;;;;;6122278;28;20704;-63
2023/02/06 05:37:59;;;;;;;1.52;0.98;;;10.40;51.10;;;;;;6122090;28;20500;-63
2023/02/06 05:41:00;;;;;;;2.20;1.05;;;10.40;51.10;;;;;;6122211;29;20051;-64
2023/02/06 05:44:00;;;;;;;2.03;1.23;;;10.40;51.10;;;;;;6122423;28;20107;-63
2023/02/06 05:47:01;;;;;;;1.50;0.95;;;10.40;51.10;;;;;;6121092;29;20093;-63
2023/02/06 05:50:02;;;;;;;1.33;0.80;;;10.40;51.10;;;;;;6106118;28;20042;-64
2023/02/06 05:53:03;;;;;;;2.30;1.40;;;10.30;51.00;;;;;;6122925;28;20031;-64
2023/02/06 05:56:04;;;;;;;3.85;2.03;;;10.30;51.10;;;;;;6121685;29;20435;-63
2023/02/06 05:59:05;;;;;;;2.63;1.63;;;10.30;51.00;;;;;;6121718;29;20020;-63
2023/02/06 06:02:06;;;;;;;3.63;1.88;;;10.20;51.10;;;;;;6105124;28;20062;-64
2023/02/06 06:05:07;;;;;;;6.93;1.88;;;10.20;51.30;;;;;;6122048;28;20032;-65
2023/02/06 06:08:08;;;;;;;3.05;1.65;;;10.20;51.30;;;;;;6120616;29;20032;-63
2023/02/06 06:11:08;;;;;;;1.65;1.45;;;10.20;51.30;;;;;;6120022;29;20040;-63
2023/02/06 06:14:10;;;;;;;4.18;1.80;;;10.20;51.30;;;;;;6121888;29;20110;-63
2023/02/06 06:17:11;;;;;;;3.83;1.25;;;10.20;51.30;;;;;;6120366;29;20119;-64
2023/02/06 06:20:12;;;;;;;2.60;1.42;;;10.10;51.30;;;;;;6121564;29;20809;-64
2023/02/06 06:23:13;;;;;;;4.95;1.40;;;10.20;51.40;;;;;;6121479;29;20468;-63
2023/02/06 06:26:14;;;;;;;4.38;1.80;;;10.20;51.40;;;;;;6122451;28;20417;-65
2023/02/06 06:29:15;;;;;;;2.30;1.45;;;10.10;51.40;;;;;;6124053;28;20039;-64
2023/02/06 06:32:16;;;;;;;5.55;1.63;;;10.10;51.40;;;;;;6124678;28;20067;-64
2023/02/06 06:35:17;;;;;;;2.53;1.50;;;10.10;51.40;;;;;;6108700;28;20564;-64
2023/02/06 06:38:18;;;;;;;2.08;1.52;;;10.10;51.40;;;;;;6125256;29;20036;-63
2023/02/06 06:41:19;;;;;;;4.85;1.95;;;10.20;51.50;;;;;;6125135;28;20027;-64
2023/02/06 06:44:20;;;;;;;4.63;1.88;;;10.20;51.50;;;;;;6125726;29;20480;-63
2023/02/06 06:47:20;;;;;;;4.80;1.50;;;10.20;51.50;;;;;;6124055;29;20544;-64
2023/02/06 06:50:21;;;;;;;3.20;1.90;;;10.20;51.50;;;;;;6107927;29;20472;-63
2023/02/06 06:53:22;;;;;;;2.65;1.60;;;10.20;51.40;;;;;;6125067;28;20035;-63
2023/02/06 06:56:23;;;;;;;5.60;2.05;;;10.20;51.40;;;;;;6125360;29;20024;-63
2023/02/06 06:59:24;;;;;;;7.65;2.22;;;10.20;51.50;;;;;;6123382;29;20086;-63
2023/02/06 07:02:27;;;;;;;3.47;1.83;;;10.10;51.60;;;;;;6125377;29;20431;-63
2023/02/06 07:05:28;;;;;;;8.20;2.30;;;10.10;51.70;;;;;;6124020;29;20051;-64
2023/02/06 07:08:28;;;;;;;3.25;1.70;;;10.10;51.70;;;;;;6123497;29;20568;-63
2023/02/06 07:11:29;;;;;;;4.80;1.75;;;10.10;51.70;;;;;;6124832;29;20035;-65
2023/02/06 07:14:31;;;;;;;5.03;1.77;;;10.10;51.70;;;;;;6125105;29;20107;-64
2023/02/06 07:17:32;;;;;;;2.63;1.73;;;10.10;51.70;;;;;;6123513;29;20036;-65
2023/02/06 07:20:33;;;;;;;3.65;2.15;;;10.10;51.80;;;;;;6124622;29;20059;-64
2023/02/06 07:23:37;;;;;;;5.68;2.45;;;10.10;51.90;;;;;;6114633;29;20047;-64
2023/02/06 07:26:40;;;;;;;3.65;2.25;;;10.10;51.90;;;;;;6109957;28;20480;-64
2023/02/06 07:29:41;;;;;;;8.00;2.00;;;10.10;51.90;;;;;;6122842;29;20062;-64
2023/02/06 07:32:41;;;;;;;5.35;1.85;;;10.20;52.00;;;;;;6124792;28;20476;-63
2023/02/06 07:35:42;;;;;;;3.45;1.95;;;10.20;51.90;;;;;;6124654;28;20398;-64
2023/02/06 07:38:43;;;;;;;3.35;1.80;;;10.20;51.90;;;;;;6122949;29;20066;-63
2023/02/06 07:41:45;;;;;;;3.67;1.92;;;10.20;51.80;;;;;;6123194;29;20036;-65
2023/02/06 07:44:47;;;;;;;3.78;1.73;;;10.20;51.80;;;;;;6107381;28;20039;-64
2023/02/06 07:47:48;;;;;;;4.00;2.22;;;10.20;51.80;;;;;;6122858;28;20040;-62
2023/02/06 07:50:49;;;;;;;3.72;2.10;;;10.20;51.80;;;;;;6124234;28;20550;-63
2023/02/06 07:53:50;;;;;;;3.90;1.98;;;10.20;51.90;;;;;;6124268;28;20119;-64
2023/02/06 07:56:50;;;;;;;5.15;2.95;;;10.20;51.80;;;;;;6123980;28;20468;-63
2023/02/06 07:59:51;;;;;;;25.13;4.05;;;10.30;51.90;;;;;;6122216;29;20031;-63
2023/02/06 18:38:04;;;;;;;7.43;3.92;;;11.20;45.70;;;;;;7494679;23;1567042;-64
2023/02/06 18:41:06;;;;;;;6.65;3.10;;;11.30;45.70;;;;;;7603403;23;20102;-66
2023/02/06 18:44:08;;;;;;;12.35;3.20;;;11.20;45.70;;;;;;7602514;23;20013;-66
2023/02/06 18:47:14;;;;;;;5.30;3.30;;;11.20;45.70;;;;;;7601244;23;20077;-64
2023/02/06 18:50:15;;;;;;;8.32;3.75;;;11.20;45.70;;;;;;7568013;23;20383;-67
2023/02/06 18:53:16;;;;;;;4.82;3.10;;;11.20;45.60;;;;;;7568207;23;20097;-67
2023/02/06 18:56:18;;;;;;;6.28;3.42;;;11.30;45.60;;;;;;7568196;23;20009;-67
2023/02/06 18:59:19;;;;;;;9.43;3.78;;;11.30;45.50;;;;;;7568382;23;20002;-68
2023/02/06 19:02:20;;;;;;;6.88;3.55;;;11.30;45.50;;;;;;7567179;23;20089;-67
2023/02/06 19:05:21;;;;;;;6.53;3.13;;;11.30;45.30;;;;;;7567145;23;20414;-68
2023/02/06 19:08:22;;;;;;;7.70;3.88;;;11.30;45.20;;;;;;7568163;23;20420;-68
2023/02/06 19:11:24;;;;;;;5.40;3.35;;;11.30;45.30;;;;;;7567381;23;20007;-68
2023/02/06 19:14:25;;;;;;;6.63;3.67;;;11.30;45.20;;;;;;7567962;23;20098;-68
2023/02/06 19:17:27;;;;;;;7.07;3.50;;;11.30;45.20;;;;;;7542416;23;20077;-68
2023/02/06 19:20:28;;;;;;;6.10;3.22;;;11.30;45.20;;;;;;7542679;23;20016;-67
2023/02/06 19:23:29;;;;;;;9.85;4.28;;;11.30;45.20;;;;;;7566272;23;20006;-68
2023/02/06 19:26:31;;;;;;;5.07;3.58;;;11.30;45.20;;;;;;7566311;23;20010;-68
2023/02/06 19:29:32;;;;;;;10.63;4.03;;;11.30;45.20;;;;;;7567991;23;20111;-67
2023/02/06 19:32:33;;;;;;;9.25;3.70;;;11.20;45.10;;;;;;7567677;23;20101;-68
2023/02/06 19:35:39;;;;;;;5.97;3.60;;;11.20;45.20;;;;;;7568395;23;20061;-67
2023/02/06 19:38:40;;;;;;;6.88;3.17;;;11.20;45.20;;;;;;7567339;23;20435;-68
2023/02/06 19:41:41;;;;;;;8.13;3.53;;;11.20;45.10;;;;;;7542508;23;20014;-66
2023/02/06 19:44:42;;;;;;;6.07;3.83;;;11.20;45.10;;;;;;7517928;23;20014;-67
2023/02/06 19:47:43;;;;;;;8.02;3.92;;;11.10;45.10;;;;;;7541706;23;20003;-68
2023/02/06 19:50:45;;;;;;;6.57;3.50;;;11.20;45.20;;;;;;7567624;23;20487;-68
2023/02/06 19:53:48;;;;;;;7.68;4.13;;;11.20;45.10;;;;;;7568007;23;20006;-67
2023/02/06 19:56:49;;;;;;;7.78;3.70;;;11.20;45.10;;;;;;7543018;23;20006;-66
2023/02/06 19:59:50;;;;;;;6.40;3.53;;;11.20;44.90;;;;;;7518571;23;20073;-64
2023/02/06 20:02:51;;;;;;;7.05;3.45;;;11.20;44.70;;;;;;7567148;23;20014;-66
2023/02/06 20:05:52;;;;;;;6.03;3.17;;;11.20;44.70;;;;;;7541813;23;20081;-67
2023/02/06 20:08:56;;;;;;;8.48;3.53;;;11.20;44.70;;;;;;7566571;23;20053;-67
2023/02/06 20:11:57;;;;;;;6.20;3.38;;;11.20;44.10;;;;;;7541573;23;20010;-67
2023/02/06 20:14:59;;;;;;;6.97;3.53;;;11.20;44.60;;;;;;7542038;23;20034;-67
2023/02/06 20:18:00;;;;;;;6.88;4.10;;;11.20;44.50;;;;;;7567348;23;20006;-66
2023/02/06 20:21:02;;;;;;;9.57;4.30;;;11.20;44.40;;;;;;7567353;23;20078;-67
2023/02/06 20:24:06;;;;;;;10.50;3.80;;;11.20;44.40;;;;;;7542486;23;20065;-66
2023/02/06 20:27:08;;;;;;;8.02;3.55;;;11.20;44.40;;;;;;7517734;23;20014;-67
2023/02/06 20:30:10;;;;;;;7.32;4.10;;;11.20;44.30;;;;;;7542157;23;20019;-66
2023/02/06 20:33:11;;;;;;;9.00;3.75;;;11.20;44.30;;;;;;7567171;23;20014;-65
2023/02/06 20:36:18;;;;;;;7.55;3.60;;;11.10;44.20;;;;;;7567555;23;20010;-66
2023/02/06 20:39:19;;;;;;;9.55;4.60;;;11.20;44.30;;;;;;7567415;23;20077;-67
2023/02/06 20:42:23;;;;;;;7.72;3.45;;;11.20;44.20;;;;;;7568266;23;20014;-65
2023/02/06 20:45:24;;;;;;;7.13;3.95;;;11.20;44.10;;;;;;7568711;23;20021;-66
2023/02/06 20:48:25;;;;;;;5.65;3.33;;;11.10;44.10;;;;;;7571627;23;20007;-66
2023/02/06 20:51:26;;;;;;;13.35;3.45;;;11.10;44.20;;;;;;7548560;23;20018;-69
2023/02/06 20:54:28;;;;;;;5.72;3.25;;;11.10;44.20;;;;;;7571913;23;20016;-65
2023/02/06 20:57:30;;;;;;;8.43;3.65;;;11.10;44.30;;;;;;7568553;23;20025;-66
2023/02/06 21:00:31;;;;;;;9.48;4.28;;;11.10;44.20;;;;;;7541355;23;20447;-65
2023/02/06 21:03:32;;;;;;;7.75;3.58;;;11.10;44.30;;;;;;7566958;23;20010;-67
2023/02/06 21:06:34;;;;;;;8.52;4.60;;;11.10;45.00;;;;;;7566856;23;20254;-66
2023/02/06 21:09:35;;;;;;;7.75;3.55;;;11.00;44.40;;;;;;7566375;23;20011;-66
2023/02/06 21:12:36;;;;;;;7.95;3.80;;;11.00;44.30;;;;;;7566952;23;20336;-67
2023/02/06 21:15:37;;;;;;;7.15;3.72;;;11.00;44.40;;;;;;7566984;23;20003;-66
2023/02/06 21:18:41;;;;;;;8.68;4.57;;;11.00;44.40;;;;;;7541138;23;20007;-65
2023/02/06 21:21:42;;;;;;;6.88;3.78;;;11.00;44.40;;;;;;7518068;23;20015;-65
2023/02/06 21:24:43;;;;;;;6.40;3.90;;;10.90;44.30;;;;;;7566832;23;20010;-66
2023/02/06 21:27:44;;;;;;;6.72;3.97;;;10.90;44.50;;;;;;7566735;23;20002;-66
2023/02/06 21:30:46;;;;;;;8.25;3.95;;;10.90;44.50;;;;;;7567667;23;20003;-66
2023/02/06 21:33:48;;;;;;;8.05;3.78;;;10.90;45.10;;;;;;7569280;23;20432;-68
2023/02/06 21:36:50;;;;;;;7.00;3.55;;;10.80;44.50;;;;;;7571495;23;20002;-66
2023/02/06 21:39:51;;;;;;;6.90;4.32;;;10.90;44.60;;;;;;7567902;23;20014;-67
2023/02/06 21:42:52;;;;;;;15.73;4.38;;;10.90;44.60;;;;;;7542141;23;20070;-67
2023/02/06 21:45:53;;;;;;;7.03;3.88;;;10.90;44.60;;;;;;7567482;23;20011;-67
2023/02/06 21:48:55;;;;;;;7.05;3.90;;;10.90;44.60;;;;;;7541769;23;20017;-67
2023/02/06 21:51:59;;;;;;;11.52;4.00;;;10.90;45.20;;;;;;7567415;23;20006;-67
2023/02/06 21:55:00;;;;;;;6.88;3.88;;;10.80;44.60;;;;;;7567167;23;20006;-67
2023/02/06 21:58:02;;;;;;;8.43;4.13;;;10.80;44.70;;;;;;7566826;23;20032;-67
2023/02/06 22:01:05;;;;;;;7.13;3.88;;;10.80;44.70;;;;;;7541277;23;20006;-66
2023/02/06 22:04:07;;;;;;;7.72;4.25;;;10.80;44.60;;;;;;7541504;23;20495;-67
2023/02/06 22:07:10;;;;;;;8.80;4.63;;;10.90;44.70;;;;;;7540645;23;20018;-66
2023/02/06 22:10:11;;;;;;;8.48;4.00;;;10.90;44.70;;;;;;7566464;23;20352;-66
2023/02/06 22:13:12;;;;;;;12.63;5.00;;;10.90;44.70;;;;;;7566621;23;20019;-67
2023/02/06 22:16:15;;;;;;;9.18;4.53;;;10.80;44.70;;;;;;7566633;23;20067;-66
2023/02/06 22:19:16;;;;;;;9.70;4.85;;;10.80;45.40;;;;;;7566020;23;20055;-67
2023/02/06 22:22:17;;;;;;;8.63;4.15;;;10.70;44.90;;;;;;7566763;23;20014;-66
2023/02/06 22:25:21;;;;;;;9.50;4.22;;;10.60;45.00;;;;;;7568604;23;20010;-66
2023/02/06 22:28:22;;;;;;;10.32;4.20;;;10.60;45.10;;;;;;7541247;23;20065;-68
2023/02/06 22:31:26;;;;;;;7.43;4.07;;;10.60;45.20;;;;;;7541324;23;20479;-68
2023/02/06 22:34:27;;;;;;;7.75;4.00;;;10.60;45.30;;;;;;7566746;23;20034;-65
2023/02/06 22:37:31;;;;;;;9.57;5.03;;;10.60;45.30;;;;;;7540917;23;20017;-67
2023/02/06 22:40:32;;;;;;;7.47;4.00;;;10.60;45.20;;;;;;7566773;23;20010;-67
2023/02/06 22:43:36;;;;;;;12.65;4.93;;;10.60;45.10;;;;;;7566691;23;20077;-66
2023/02/06 22:46:38;;;;;;;8.45;4.85;;;10.60;45.00;;;;;;7566200;23;20010;-69
2023/02/06 22:49:39;;;;;;;8.77;4.53;;;10.60;45.00;;;;;;7566625;23;20017;-67
2023/02/06 22:56:30;;;;;;;5.65;3.83;;;10.60;44.80;;;;;;7568584;23;20002;-68
2023/02/06 22:59:31;;;;;;;9.63;3.97;;;10.60;44.90;;;;;;7543210;23;20018;-67
2023/02/06 23:02:32;;;;;;;9.02;4.22;;;10.60;44.80;;;;;;7519776;23;20018;-66
2023/02/06 23:05:36;;;;;;;10.23;4.50;;;10.70;45.40;;;;;;7568617;23;20340;-67
2023/02/06 23:08:38;;;;;;;12.02;5.15;;;10.70;44.80;;;;;;7568148;23;20010;-68
2023/02/06 23:11:40;;;;;;;8.55;4.70;;;10.70;44.80;;;;;;7568489;23;20447;-67
2023/02/06 23:14:42;;;;;;;11.05;4.65;;;10.70;44.80;;;;;;7568432;23;20161;-67
2023/02/06 23:17:43;;;;;;;10.02;4.75;;;10.60;44.80;;;;;;7567798;23;20158;-66
2023/02/06 23:20:44;;;;;;;8.05;4.10;;;10.60;44.90;;;;;;7567921;23;20010;-68
2023/02/06 23:23:45;;;;;;;9.27;4.40;;;10.50;45.00;;;;;;7542521;23;20436;-65
2023/02/06 23:26:48;;;;;;;7.85;4.47;;;10.50;45.10;;;;;;7568085;23;20073;-66
2023/02/06 23:29:49;;;;;;;9.95;4.28;;;10.50;45.10;;;;;;7542048;23;20014;-66
2023/02/06 23:32:51;;;;;;;8.65;4.38;;;10.50;45.10;;;;;;7568003;23;20061;-66
2023/02/06 23:35:51;;;;;;;10.90;4.38;;;10.40;45.00;;;;;;7568048;23;20503;-67
2023/02/06 23:38:53;;;;;;;10.13;5.00;;;10.50;45.10;;;;;;7567269;23;20014;-66
2023/02/06 23:41:54;;;;;;;6.70;4.15;;;10.50;45.00;;;;;;7542418;23;20380;-67
2023/02/06 23:44:54;;;;;;;11.32;4.65;;;10.50;44.90;;;;;;7567704;23;20003;-66
2023/02/06 23:47:56;;;;;;;13.23;5.00;;;10.60;44.80;;;;;;7567531;23;20007;-66
2023/02/06 23:50:57;;;;;;;8.15;4.53;;;10.60;44.80;;;;;;7567844;23;20030;-66
2023/02/06 23:53:59;;;;;;;10.15;3.75;;;10.60;44.60;;;;;;7567771;23;20017;-66
2023/02/06 23:57:00;;;;;;;9.50;3.90;;;10.50;44.60;;;;;;7567238;23;20106;-67
